createdAt,value
2018-12-06T00:00:58.947Z,23.42
2018-12-06T00:01:58.950Z,23.41
2018-12-06T00:02:58.942Z,23.34
2018-12-06T00:03:58.931Z,23.29
2018-12-06T00:04:58.924Z,23.38
2018-12-06T00:05:58.935Z,23.32
2018-12-06T00:06:58.888Z,23.32
2018-12-06T00:07:58.909Z,23.39
2018-12-06T00:08:58.887Z,23.31
2018-12-06T00:09:58.901Z,23.42
2018-12-06T00:10:58.902Z,23.29
2018-12-06T00:11:58.888Z,23.44
2018-12-06T00:12:58.859Z,23.34
2018-12-06T00:13:58.858Z,23.39
2018-12-06T00:14:58.881Z,23.39
2018-12-06T00:15:58.840Z,23.29
2018-12-06T00:16:58.838Z,23.29
2018-12-06T00:17:58.831Z,23.37
2018-12-06T00:18:58.833Z,23.34
2018-12-06T00:19:58.812Z,23.37
2018-12-06T00:20:58.858Z,23.31
2018-12-06T00:21:58.798Z,23.32
2018-12-06T00:22:58.811Z,23.22
2018-12-06T00:23:58.810Z,23.15
2018-12-06T00:24:58.776Z,23.18
2018-12-06T00:25:58.820Z,23.23
2018-12-06T00:26:58.793Z,23.21
2018-12-06T00:27:58.777Z,23.18
2018-12-06T00:28:58.778Z,23.14
2018-12-06T00:29:58.749Z,23.18
2018-12-06T00:30:58.744Z,23.23
2018-12-06T00:31:58.774Z,23.12
2018-12-06T00:32:58.758Z,23.16
2018-12-06T00:33:58.739Z,23.15
2018-12-06T00:34:58.734Z,23.16
2018-12-06T00:35:58.765Z,23.15
2018-12-06T00:36:58.709Z,23.21
2018-12-06T00:37:58.700Z,23.18
2018-12-06T00:38:58.707Z,23.15
2018-12-06T00:39:58.692Z,23.14
2018-12-06T00:40:58.782Z,23.12
2018-12-06T00:41:58.667Z,23.09
2018-12-06T00:42:58.687Z,23.15
2018-12-06T00:43:58.676Z,23.12
2018-12-06T00:44:58.630Z,23.14
2018-12-06T00:45:58.660Z,23.15
2018-12-06T00:46:58.637Z,23.21
2018-12-06T00:47:58.688Z,23.16
2018-12-06T00:48:58.654Z,23.19
2018-12-06T00:49:58.615Z,23.16
2018-12-06T00:50:58.619Z,23.14
2018-12-06T00:51:58.627Z,23.14
2018-12-06T00:52:58.605Z,23.11
2018-12-06T00:53:58.588Z,23.14
2018-12-06T00:54:58.611Z,23.11
2018-12-06T00:55:58.587Z,23.03
2018-12-06T00:56:58.584Z,22.96
2018-12-06T00:57:58.601Z,22.99
2018-12-06T00:58:58.582Z,23.01
2018-12-06T00:59:58.569Z,22.91
2018-12-06T01:00:58.555Z,22.89
2018-12-06T01:01:58.529Z,22.91
2018-12-06T01:02:58.521Z,22.85
2018-12-06T01:03:58.550Z,22.86
2018-12-06T01:04:58.569Z,22.99
2018-12-06T01:05:58.604Z,22.99
2018-12-06T01:06:58.539Z,22.97
2018-12-06T01:07:58.492Z,22.91
2018-12-06T01:08:58.547Z,22.93
2018-12-06T01:09:58.495Z,23.00
2018-12-06T01:10:58.486Z,22.97
2018-12-06T01:11:58.487Z,23.00
2018-12-06T01:12:58.476Z,23.00
2018-12-06T01:13:58.452Z,23.01
2018-12-06T01:14:58.472Z,23.04
2018-12-06T01:15:58.444Z,22.99
2018-12-06T01:16:58.464Z,23.04
2018-12-06T01:17:58.427Z,23.01
2018-12-06T01:18:58.445Z,23.00
2018-12-06T01:19:58.468Z,23.04
2018-12-06T01:20:58.414Z,23.14
2018-12-06T01:21:58.428Z,22.99
2018-12-06T01:22:58.421Z,23.03
2018-12-06T01:23:58.432Z,22.96
2018-12-06T01:24:58.394Z,22.97
2018-12-06T01:25:58.380Z,23.04
2018-12-06T01:26:58.404Z,23.00
2018-12-06T01:27:58.394Z,23.03
2018-12-06T01:28:58.355Z,22.97
2018-12-06T01:29:58.352Z,23.06
2018-12-06T01:30:58.357Z,23.12
2018-12-06T01:31:58.359Z,22.97
2018-12-06T01:32:58.385Z,22.99
2018-12-06T01:33:58.328Z,22.91
2018-12-06T01:34:58.347Z,22.89
2018-12-06T01:35:58.317Z,22.86
2018-12-06T01:36:58.324Z,22.89
2018-12-06T01:37:58.293Z,22.86
2018-12-06T01:38:58.302Z,22.82
2018-12-06T01:39:58.311Z,22.88
2018-12-06T01:40:58.290Z,22.86
2018-12-06T01:41:58.311Z,22.94
2018-12-06T01:42:58.256Z,22.97
2018-12-06T01:43:58.297Z,22.99
2018-12-06T01:44:58.246Z,23.00
2018-12-06T01:45:58.279Z,22.99
2018-12-06T01:46:58.252Z,22.96
2018-12-06T01:47:58.238Z,22.85
2018-12-06T01:48:58.223Z,22.84
2018-12-06T01:49:58.225Z,22.76
2018-12-06T01:50:58.219Z,22.86
2018-12-06T01:51:58.249Z,22.85
2018-12-06T01:52:58.190Z,22.85
2018-12-06T01:53:58.180Z,22.86
2018-12-06T01:54:58.208Z,22.82
2018-12-06T01:55:58.184Z,22.81
2018-12-06T01:56:58.218Z,22.76
2018-12-06T01:57:58.162Z,22.76
2018-12-06T01:58:58.186Z,22.79
2018-12-06T01:59:58.142Z,22.61
2018-12-06T02:00:58.143Z,22.57
2018-12-06T02:01:58.125Z,22.52
2018-12-06T02:02:58.153Z,22.59
2018-12-06T02:03:58.150Z,22.59
2018-12-06T02:04:58.177Z,22.49
2018-12-06T02:05:58.120Z,22.39
2018-12-06T02:06:58.109Z,22.48
2018-12-06T02:07:58.101Z,22.48
2018-12-06T02:08:58.111Z,22.51
2018-12-06T02:09:58.084Z,22.35
2018-12-06T02:10:58.086Z,22.44
2018-12-06T02:11:58.117Z,22.44
2018-12-06T02:12:58.063Z,22.39
2018-12-06T02:13:58.055Z,22.41
2018-12-06T02:14:58.042Z,22.35
2018-12-06T02:15:58.071Z,22.30
2018-12-06T02:16:58.029Z,22.31
2018-12-06T02:17:58.050Z,22.33
2018-12-06T02:18:58.025Z,22.29
2018-12-06T02:19:58.006Z,22.20
2018-12-06T02:20:58.006Z,22.19
2018-12-06T02:21:58.015Z,22.12
2018-12-06T02:22:57.980Z,22.17
2018-12-06T02:23:57.971Z,22.19
2018-12-06T02:24:57.994Z,22.11
2018-12-06T02:25:58.009Z,22.08
2018-12-06T02:26:57.983Z,22.12
2018-12-06T02:27:57.949Z,22.19
2018-12-06T02:28:57.967Z,22.31
2018-12-06T02:29:57.933Z,22.19
2018-12-06T02:30:57.948Z,22.19
2018-12-06T02:31:57.929Z,22.09
2018-12-06T02:32:57.976Z,22.14
2018-12-06T02:33:57.931Z,22.14
2018-12-06T02:34:57.933Z,22.08
2018-12-06T02:35:57.902Z,22.14
2018-12-06T02:36:57.916Z,21.99
2018-12-06T02:37:57.921Z,22.09
2018-12-06T02:38:57.889Z,22.20
2018-12-06T02:39:57.889Z,22.26
2018-12-06T02:40:57.854Z,22.23
2018-12-06T02:41:57.876Z,22.11
2018-12-06T02:42:57.864Z,22.23
2018-12-06T02:43:57.869Z,22.24
2018-12-06T02:44:57.874Z,22.29
2018-12-06T02:45:57.834Z,22.12
2018-12-06T02:46:57.840Z,22.15
2018-12-06T02:47:57.834Z,22.12
2018-12-06T02:48:57.828Z,22.05
2018-12-06T02:49:57.848Z,21.99
2018-12-06T02:50:57.812Z,22.11
2018-12-06T02:51:57.808Z,22.04
2018-12-06T02:52:57.796Z,22.14
2018-12-06T02:53:57.792Z,22.11
2018-12-06T02:54:57.793Z,21.99
2018-12-06T02:55:57.781Z,22.09
2018-12-06T02:56:57.767Z,22.14
2018-12-06T02:57:57.737Z,21.98
2018-12-06T02:58:57.748Z,22.05
2018-12-06T02:59:57.707Z,22.02
2018-12-06T03:00:57.718Z,22.04
2018-12-06T03:01:57.736Z,22.02
2018-12-06T03:02:57.707Z,21.99
2018-12-06T03:03:57.706Z,22.04
2018-12-06T03:04:57.706Z,21.99
2018-12-06T03:05:57.686Z,21.96
2018-12-06T03:06:57.683Z,21.96
2018-12-06T03:07:57.719Z,21.91
2018-12-06T03:08:57.658Z,21.85
2018-12-06T03:09:57.648Z,21.83
2018-12-06T03:10:57.658Z,21.85
2018-12-06T03:11:57.641Z,21.94
2018-12-06T03:12:57.633Z,21.93
2018-12-06T03:13:57.659Z,21.96
2018-12-06T03:14:57.610Z,21.91
2018-12-06T03:15:57.624Z,21.90
2018-12-06T03:16:57.620Z,21.96
2018-12-06T03:17:57.613Z,21.94
2018-12-06T03:18:57.643Z,21.91
2018-12-06T03:19:57.596Z,21.96
2018-12-06T03:20:57.677Z,21.89
2018-12-06T03:21:57.577Z,21.90
2018-12-06T03:22:57.589Z,21.83
2018-12-06T03:23:57.617Z,21.83
2018-12-06T03:24:57.582Z,21.82
2018-12-06T03:25:57.547Z,21.70
2018-12-06T03:26:57.568Z,21.67
2018-12-06T03:27:57.514Z,21.71
2018-12-06T03:28:57.523Z,21.77
2018-12-06T03:29:57.501Z,21.81
2018-12-06T03:30:57.529Z,21.77
2018-12-06T03:31:57.502Z,21.89
2018-12-06T03:32:57.485Z,21.79
2018-12-06T03:33:57.502Z,21.83
2018-12-06T03:34:57.488Z,21.64
2018-12-06T03:35:57.488Z,21.73
2018-12-06T03:36:57.462Z,21.66
2018-12-06T03:37:57.468Z,21.67
2018-12-06T03:38:57.548Z,21.70
2018-12-06T03:39:57.435Z,21.58
2018-12-06T03:40:57.439Z,21.63
2018-12-06T03:41:57.424Z,21.61
2018-12-06T03:42:57.416Z,21.55
2018-12-06T03:43:57.424Z,21.52
2018-12-06T03:44:57.423Z,21.46
2018-12-06T03:45:57.461Z,21.43
2018-12-06T03:46:57.415Z,21.37
2018-12-06T03:47:57.403Z,21.46
2018-12-06T03:48:57.419Z,21.31
2018-12-06T03:49:57.386Z,21.40
2018-12-06T03:50:57.378Z,21.31
2018-12-06T03:51:57.409Z,21.27
2018-12-06T03:52:57.348Z,21.31
2018-12-06T03:53:57.355Z,21.22
2018-12-06T03:54:57.345Z,21.30
2018-12-06T03:55:57.303Z,21.30
2018-12-06T03:56:57.386Z,21.34
2018-12-06T03:57:57.327Z,21.38
2018-12-06T03:58:57.297Z,21.36
2018-12-06T03:59:57.316Z,21.31
2018-12-06T04:00:57.288Z,21.31
2018-12-06T04:01:57.292Z,21.27
2018-12-06T04:02:57.274Z,21.31
2018-12-06T04:03:57.273Z,21.34
2018-12-06T04:04:57.270Z,21.22
2018-12-06T04:05:57.253Z,21.36
2018-12-06T04:06:57.285Z,21.30
2018-12-06T04:07:57.219Z,21.34
2018-12-06T04:08:57.212Z,21.26
2018-12-06T04:09:57.199Z,21.26
2018-12-06T04:10:57.193Z,21.28
2018-12-06T04:11:57.187Z,21.22
2018-12-06T04:12:57.190Z,21.22
2018-12-06T04:13:57.185Z,21.22
2018-12-06T04:14:57.201Z,21.21
2018-12-06T04:15:57.170Z,21.27
2018-12-06T04:16:57.202Z,21.26
2018-12-06T04:17:57.196Z,21.21
2018-12-06T04:18:57.148Z,21.30
2018-12-06T04:19:57.161Z,21.28
2018-12-06T04:20:57.433Z,21.33
2018-12-06T04:21:57.153Z,21.38
2018-12-06T04:22:57.122Z,21.36
2018-12-06T04:23:57.114Z,21.34
2018-12-06T04:24:57.154Z,21.34
2018-12-06T04:25:57.101Z,21.26
2018-12-06T04:26:57.107Z,21.30
2018-12-06T04:27:57.079Z,21.31
2018-12-06T04:28:57.081Z,21.34
2018-12-06T04:29:57.070Z,21.34
2018-12-06T04:30:57.075Z,21.26
2018-12-06T04:31:57.291Z,21.28
2018-12-06T04:32:57.045Z,21.36
2018-12-06T04:33:57.020Z,21.36
2018-12-06T04:34:57.015Z,21.36
2018-12-06T04:35:57.033Z,21.30
2018-12-06T04:36:57.009Z,21.19
2018-12-06T04:37:57.021Z,21.06
2018-12-06T04:38:56.983Z,21.06
2018-12-06T04:39:56.999Z,21.05
2018-12-06T04:40:56.985Z,21.08
2018-12-06T04:41:56.992Z,21.06
2018-12-06T04:42:56.945Z,21.06
2018-12-06T04:43:56.955Z,21.12
2018-12-06T04:44:56.965Z,21.19
2018-12-06T04:45:56.952Z,21.16
2018-12-06T04:46:56.948Z,21.18
2018-12-06T04:47:56.940Z,21.06
2018-12-06T04:48:56.959Z,21.03
2018-12-06T04:49:56.891Z,21.09
2018-12-06T04:50:56.901Z,21.13
2018-12-06T04:51:56.922Z,21.09
2018-12-06T04:52:56.890Z,21.09
2018-12-06T04:53:56.889Z,21.05
2018-12-06T04:54:56.852Z,21.05
2018-12-06T04:55:56.913Z,21.05
2018-12-06T04:56:56.861Z,21.05
2018-12-06T04:57:56.860Z,20.98
2018-12-06T04:58:56.827Z,20.93
2018-12-06T04:59:56.834Z,20.82
2018-12-06T05:00:56.882Z,20.81
2018-12-06T05:01:56.812Z,20.78
2018-12-06T05:02:56.817Z,20.72
2018-12-06T05:03:56.791Z,20.73
2018-12-06T05:04:56.848Z,20.79
2018-12-06T05:05:56.791Z,20.78
2018-12-06T05:06:56.774Z,20.76
2018-12-06T05:07:56.763Z,20.69
2018-12-06T05:08:56.768Z,20.68
2018-12-06T05:09:56.749Z,20.79
2018-12-06T05:10:56.780Z,20.73
2018-12-06T05:11:56.729Z,20.69
2018-12-06T05:12:56.742Z,20.87
2018-12-06T05:13:56.714Z,20.83
2018-12-06T05:14:56.714Z,20.88
2018-12-06T05:15:56.710Z,20.88
2018-12-06T05:16:56.704Z,20.96
2018-12-06T05:17:56.689Z,20.91
2018-12-06T05:18:56.675Z,20.85
2018-12-06T05:19:56.685Z,20.87
2018-12-06T05:20:56.671Z,20.81
2018-12-06T05:21:56.671Z,20.78
2018-12-06T05:22:56.652Z,20.81
2018-12-06T05:23:56.644Z,20.78
2018-12-06T05:24:56.623Z,20.82
2018-12-06T05:25:56.631Z,20.75
2018-12-06T05:26:56.595Z,20.79
2018-12-06T05:27:56.597Z,20.79
2018-12-06T05:28:56.619Z,20.76
2018-12-06T05:29:56.602Z,20.69
2018-12-06T05:30:56.599Z,20.75
2018-12-06T05:31:56.570Z,20.69
2018-12-06T05:32:56.578Z,20.71
2018-12-06T05:33:56.538Z,20.64
2018-12-06T05:34:56.550Z,20.63
2018-12-06T05:35:56.523Z,20.60
2018-12-06T05:36:56.538Z,20.54
2018-12-06T05:37:56.839Z,20.60
2018-12-06T05:38:56.521Z,20.51
2018-12-06T05:39:56.514Z,20.56
2018-12-06T05:40:56.509Z,20.54
2018-12-06T05:41:56.500Z,20.56
2018-12-06T05:42:56.475Z,20.53
2018-12-06T05:43:56.482Z,20.50
2018-12-06T05:44:56.466Z,20.51
2018-12-06T05:45:56.469Z,20.57
2018-12-06T05:46:56.443Z,20.46
2018-12-06T05:47:56.441Z,20.58
2018-12-06T05:48:56.697Z,20.46
2018-12-06T05:49:56.411Z,20.41
2018-12-06T05:50:56.434Z,20.37
2018-12-06T05:51:56.399Z,20.35
2018-12-06T05:52:56.397Z,20.34
2018-12-06T05:53:56.405Z,20.25
2018-12-06T05:54:56.388Z,20.25
2018-12-06T05:55:56.375Z,20.22
2018-12-06T05:56:56.391Z,20.20
2018-12-06T05:57:56.352Z,20.17
2018-12-06T05:58:56.360Z,20.13
2018-12-06T05:59:56.565Z,20.17
2018-12-06T06:00:56.311Z,20.05
2018-12-06T06:01:56.331Z,20.15
2018-12-06T06:02:56.304Z,20.15
2018-12-06T06:03:56.302Z,20.08
2018-12-06T06:04:56.310Z,20.10
2018-12-06T06:05:56.284Z,20.07
2018-12-06T06:06:56.293Z,20.08
2018-12-06T06:07:56.269Z,20.16
2018-12-06T06:08:56.236Z,20.08
2018-12-06T06:09:56.254Z,20.07
2018-12-06T06:10:56.247Z,20.08
2018-12-06T06:11:56.243Z,20.13
2018-12-06T06:12:56.218Z,20.12
2018-12-06T06:13:56.231Z,20.10
2018-12-06T06:14:56.238Z,20.15
2018-12-06T06:15:56.196Z,20.25
2018-12-06T06:16:56.235Z,20.19
2018-12-06T06:17:56.167Z,20.16
2018-12-06T06:18:56.167Z,20.16
2018-12-06T06:19:56.159Z,20.16
2018-12-06T06:20:56.152Z,20.13
2018-12-06T06:21:56.139Z,20.10
2018-12-06T06:22:56.186Z,20.10
2018-12-06T06:23:56.168Z,20.13
2018-12-06T06:24:56.130Z,20.15
2018-12-06T06:25:56.140Z,20.12
2018-12-06T06:26:56.128Z,20.15
2018-12-06T06:27:56.096Z,20.12
2018-12-06T06:28:56.095Z,20.13
2018-12-06T06:29:56.086Z,20.15
2018-12-06T06:30:56.058Z,20.13
2018-12-06T06:31:56.056Z,20.10
2018-12-06T06:32:56.043Z,20.12
2018-12-06T06:33:56.051Z,20.16
2018-12-06T06:34:56.039Z,20.02
2018-12-06T06:35:56.005Z,20.12
2018-12-06T06:36:56.030Z,20.10
2018-12-06T06:37:56.022Z,20.12
2018-12-06T06:38:56.001Z,20.16
2018-12-06T06:39:56.002Z,20.15
2018-12-06T06:40:55.992Z,20.12
2018-12-06T06:41:56.125Z,20.13
2018-12-06T06:42:56.020Z,20.13
2018-12-06T06:43:55.954Z,20.16
2018-12-06T06:44:55.951Z,20.16
2018-12-06T06:45:55.991Z,20.16
2018-12-06T06:46:56.291Z,20.05
2018-12-06T06:47:55.919Z,20.10
2018-12-06T06:48:55.908Z,20.12
2018-12-06T06:49:55.887Z,20.13
2018-12-06T06:50:55.887Z,20.10
2018-12-06T06:51:55.871Z,20.13
2018-12-06T06:52:55.878Z,20.08
2018-12-06T06:53:55.884Z,20.13
2018-12-06T06:54:55.916Z,20.13
2018-12-06T06:55:55.844Z,20.15
2018-12-06T06:56:55.857Z,20.07
2018-12-06T06:57:55.845Z,20.04
2018-12-06T06:58:55.835Z,20.00
2018-12-06T06:59:55.813Z,20.08
2018-12-06T07:00:55.807Z,19.92
2018-12-06T07:01:55.794Z,19.82
2018-12-06T07:02:55.791Z,19.85
2018-12-06T07:03:55.779Z,19.80
2018-12-06T07:04:55.781Z,19.75
2018-12-06T07:05:55.766Z,19.80
2018-12-06T07:06:55.744Z,19.78
2018-12-06T07:07:55.735Z,19.64
2018-12-06T07:08:55.715Z,19.79
2018-12-06T07:09:55.740Z,19.78
2018-12-06T07:10:55.720Z,19.68
2018-12-06T07:11:55.744Z,19.70
2018-12-06T07:12:55.704Z,19.70
2018-12-06T07:13:56.013Z,19.57
2018-12-06T07:14:55.696Z,19.53
2018-12-06T07:15:55.674Z,19.38
2018-12-06T07:16:55.678Z,19.35
2018-12-06T07:17:55.650Z,19.38
2018-12-06T07:18:55.655Z,19.35
2018-12-06T07:19:55.636Z,19.49
2018-12-06T07:20:55.626Z,19.55
2018-12-06T07:21:55.627Z,19.60
2018-12-06T07:22:55.602Z,19.61
2018-12-06T07:23:55.618Z,19.62
2018-12-06T07:24:55.597Z,19.53
2018-12-06T07:25:55.577Z,19.49
2018-12-06T07:26:55.559Z,19.49
2018-12-06T07:27:55.548Z,19.43
2018-12-06T07:28:55.555Z,19.39
2018-12-06T07:29:55.558Z,19.32
2018-12-06T07:30:55.530Z,19.32
2018-12-06T07:31:55.522Z,19.34
2018-12-06T07:32:55.508Z,19.35
2018-12-06T07:33:55.508Z,19.39
2018-12-06T07:34:55.510Z,19.34
2018-12-06T07:35:55.473Z,19.40
2018-12-06T07:36:55.484Z,19.35
2018-12-06T07:37:55.494Z,19.31
2018-12-06T07:38:55.468Z,19.35
2018-12-06T07:39:55.503Z,19.53
2018-12-06T07:40:55.480Z,19.50
2018-12-06T07:41:55.461Z,19.49
2018-12-06T07:42:55.424Z,19.55
2018-12-06T07:43:55.453Z,19.34
2018-12-06T07:44:55.417Z,19.40
2018-12-06T07:45:55.399Z,19.46
2018-12-06T07:46:55.398Z,19.46
2018-12-06T07:47:55.386Z,19.43
2018-12-06T07:48:55.348Z,19.46
2018-12-06T07:49:55.382Z,19.47
2018-12-06T07:50:55.356Z,19.39
2018-12-06T07:51:55.332Z,19.50
2018-12-06T07:52:55.316Z,19.38
2018-12-06T07:53:55.333Z,19.49
2018-12-06T07:54:55.341Z,19.46
2018-12-06T07:55:55.289Z,19.43
2018-12-06T07:56:55.291Z,19.40
2018-12-06T07:57:55.282Z,19.46
2018-12-06T07:58:55.269Z,19.38
2018-12-06T07:59:55.273Z,19.45
2018-12-06T08:00:55.250Z,19.57
2018-12-06T08:01:55.233Z,19.50
2018-12-06T08:02:55.242Z,19.57
2018-12-06T08:03:55.269Z,19.50
2018-12-06T08:04:55.238Z,19.55
2018-12-06T08:05:55.193Z,19.60
2018-12-06T08:06:55.200Z,19.60
2018-12-06T08:07:55.189Z,19.57
2018-12-06T08:08:55.194Z,19.46
2018-12-06T08:09:55.173Z,19.43
2018-12-06T08:10:55.178Z,19.49
2018-12-06T08:11:55.208Z,19.46
2018-12-06T08:12:55.127Z,19.47
2018-12-06T08:13:55.137Z,19.50
2018-12-06T08:14:55.112Z,19.52
2018-12-06T08:15:55.123Z,19.47
2018-12-06T08:16:55.120Z,19.55
2018-12-06T08:17:55.125Z,19.43
2018-12-06T08:18:55.080Z,19.47
2018-12-06T08:19:55.074Z,19.53
2018-12-06T08:20:55.070Z,19.52
2018-12-06T08:21:55.080Z,19.57
2018-12-06T08:22:55.041Z,19.49
2018-12-06T08:23:55.100Z,19.50
2018-12-06T08:24:55.027Z,19.53
2018-12-06T08:25:55.040Z,19.52
2018-12-06T08:26:55.038Z,19.50
2018-12-06T08:27:55.009Z,19.62
2018-12-06T08:28:54.990Z,19.70
2018-12-06T08:29:54.975Z,19.60
2018-12-06T08:30:54.978Z,19.75
2018-12-06T08:31:54.969Z,19.70
2018-12-06T08:32:54.979Z,19.67
2018-12-06T08:33:54.935Z,19.78
2018-12-06T08:34:54.958Z,19.80
2018-12-06T08:35:54.928Z,19.83
2018-12-06T08:36:54.934Z,19.71
2018-12-06T08:37:54.920Z,19.71
2018-12-06T08:38:54.900Z,19.76
2018-12-06T08:39:54.907Z,19.72
2018-12-06T08:40:54.898Z,19.72
2018-12-06T08:41:54.864Z,19.78
2018-12-06T08:42:54.876Z,19.71
2018-12-06T08:43:54.860Z,19.75
2018-12-06T08:44:54.841Z,19.68
2018-12-06T08:45:54.831Z,19.86
2018-12-06T08:46:54.843Z,19.82
2018-12-06T08:47:54.805Z,19.80
2018-12-06T08:48:54.814Z,19.75
2018-12-06T08:49:55.061Z,19.70
2018-12-06T08:50:54.806Z,19.82
2018-12-06T08:51:54.804Z,19.83
2018-12-06T08:52:54.768Z,19.76
2018-12-06T08:53:54.764Z,19.83
2018-12-06T08:54:54.779Z,19.78
2018-12-06T08:55:54.740Z,20.01
2018-12-06T08:56:54.720Z,19.87
2018-12-06T08:57:54.791Z,20.08
2018-12-06T08:58:54.714Z,19.94
2018-12-06T08:59:54.733Z,19.97
2018-12-06T09:00:54.985Z,19.97
2018-12-06T09:01:54.693Z,19.80
2018-12-06T09:02:54.693Z,19.92
2018-12-06T09:03:54.693Z,19.95
2018-12-06T09:04:54.679Z,19.94
2018-12-06T09:05:54.650Z,20.00
2018-12-06T09:06:54.642Z,20.08
2018-12-06T09:07:56.073Z,20.10
2018-12-06T09:08:54.645Z,20.10
2018-12-06T09:09:54.629Z,20.08
2018-12-06T09:10:54.621Z,20.08
2018-12-06T09:11:54.641Z,20.13
2018-12-06T09:12:54.608Z,20.16
2018-12-06T09:13:54.602Z,20.20
2018-12-06T09:14:54.600Z,20.15
2018-12-06T09:15:54.582Z,20.12
2018-12-06T09:16:54.576Z,20.26
2018-12-06T09:17:54.559Z,20.25
2018-12-06T09:18:54.551Z,20.34
2018-12-06T09:19:54.547Z,20.35
2018-12-06T09:20:54.538Z,20.37
2018-12-06T09:21:54.540Z,20.38
2018-12-06T09:22:54.503Z,20.35
2018-12-06T09:23:54.516Z,20.35
2018-12-06T09:24:54.515Z,20.40
2018-12-06T09:25:54.495Z,20.41
2018-12-06T09:26:58.666Z,20.44
2018-12-06T09:27:54.470Z,20.51
2018-12-06T09:28:54.479Z,20.57
2018-12-06T09:29:54.467Z,20.46
2018-12-06T09:31:00.856Z,20.48
2018-12-06T09:31:54.432Z,20.50
2018-12-06T09:32:54.419Z,20.50
2018-12-06T09:33:54.436Z,20.58
2018-12-06T09:34:54.445Z,20.61
2018-12-06T09:35:54.389Z,20.54
2018-12-06T09:36:54.414Z,20.58
2018-12-06T09:37:54.384Z,20.56
2018-12-06T09:38:54.375Z,20.68
2018-12-06T09:39:54.376Z,20.72
2018-12-06T09:40:54.345Z,20.71
2018-12-06T09:41:54.347Z,20.75
2018-12-06T09:42:54.367Z,20.69
2018-12-06T09:43:54.346Z,20.75
2018-12-06T09:44:54.378Z,20.78
2018-12-06T09:45:54.330Z,20.79
2018-12-06T09:46:54.306Z,20.81
2018-12-06T09:47:54.344Z,20.85
2018-12-06T09:48:54.306Z,20.79
2018-12-06T09:49:54.294Z,20.82
2018-12-06T09:50:54.342Z,20.88
2018-12-06T09:51:54.272Z,20.91
2018-12-06T09:52:54.256Z,20.88
2018-12-06T09:53:54.270Z,21.00
2018-12-06T09:54:54.234Z,20.91
2018-12-06T09:55:54.236Z,21.01
2018-12-06T09:56:54.221Z,21.05
2018-12-06T09:57:54.209Z,21.08
2018-12-06T09:58:54.210Z,20.96
2018-12-06T09:59:54.204Z,21.06
2018-12-06T10:00:54.199Z,21.12
2018-12-06T10:01:54.209Z,21.00
2018-12-06T10:02:54.189Z,21.01
2018-12-06T10:03:54.180Z,21.05
2018-12-06T10:04:54.200Z,21.05
2018-12-06T10:05:54.156Z,21.05
2018-12-06T10:06:54.130Z,21.05
2018-12-06T10:07:54.152Z,21.06
2018-12-06T10:08:54.113Z,21.09
2018-12-06T10:09:54.118Z,21.08
2018-12-06T10:10:54.103Z,21.13
2018-12-06T10:11:54.102Z,21.11
2018-12-06T10:12:54.103Z,21.08
2018-12-06T10:13:54.090Z,21.19
2018-12-06T10:14:54.098Z,21.22
2018-12-06T10:15:54.073Z,21.30
2018-12-06T10:16:54.067Z,21.22
2018-12-06T10:17:54.062Z,21.22
2018-12-06T10:18:57.600Z,21.22
2018-12-06T10:19:54.056Z,21.24
2018-12-06T10:20:54.055Z,21.27
2018-12-06T10:21:54.040Z,21.22
2018-12-06T10:22:54.055Z,21.13
2018-12-06T10:23:54.024Z,21.09
2018-12-06T10:24:54.020Z,21.18
2018-12-06T10:25:53.969Z,21.15
2018-12-06T10:26:53.993Z,21.22
2018-12-06T10:27:53.965Z,21.19
2018-12-06T10:28:53.984Z,21.27
2018-12-06T10:29:53.956Z,21.28
2018-12-06T10:30:53.964Z,21.27
2018-12-06T10:31:53.925Z,21.37
2018-12-06T10:32:53.985Z,21.53
2018-12-06T10:33:53.924Z,21.56
2018-12-06T10:34:53.936Z,21.64
2018-12-06T10:35:53.920Z,21.63
2018-12-06T10:36:53.892Z,21.48
2018-12-06T10:37:53.953Z,21.63
2018-12-06T10:38:53.892Z,21.67
2018-12-06T10:39:53.886Z,21.82
2018-12-06T10:40:53.885Z,21.75
2018-12-06T10:41:53.879Z,21.77
2018-12-06T10:42:53.847Z,21.81
2018-12-06T10:43:57.199Z,21.91
2018-12-06T10:44:53.844Z,22.02
2018-12-06T10:45:53.830Z,22.05
2018-12-06T10:46:53.817Z,21.98
2018-12-06T10:47:53.836Z,21.96
2018-12-06T10:48:53.811Z,21.96
2018-12-06T10:49:53.816Z,21.99
2018-12-06T10:50:53.798Z,21.98
2018-12-06T10:51:53.804Z,22.01
2018-12-06T10:52:53.772Z,21.96
2018-12-06T10:53:53.777Z,22.04
2018-12-06T10:54:53.775Z,22.01
2018-12-06T10:55:53.761Z,21.98
2018-12-06T10:56:53.769Z,21.99
2018-12-06T10:57:53.748Z,22.09
2018-12-06T10:58:53.742Z,22.01
2018-12-06T10:59:53.739Z,22.11
2018-12-06T11:00:57.395Z,22.11
2018-12-06T11:01:53.709Z,22.15
2018-12-06T11:02:53.732Z,22.15
2018-12-06T11:03:53.736Z,22.20
2018-12-06T11:04:53.712Z,22.27
2018-12-06T11:05:53.676Z,22.42
2018-12-06T11:06:53.725Z,22.45
2018-12-06T11:07:53.682Z,22.51
2018-12-06T11:08:53.678Z,22.59
2018-12-06T11:09:53.674Z,22.67
2018-12-06T11:10:53.652Z,22.63
2018-12-06T11:11:53.650Z,22.56
2018-12-06T11:12:53.635Z,22.57
2018-12-06T11:13:53.613Z,22.56
2018-12-06T11:14:53.634Z,22.66
2018-12-06T11:15:55.660Z,22.78
2018-12-06T11:16:53.621Z,22.94
2018-12-06T11:17:53.607Z,22.96
2018-12-06T11:18:53.612Z,23.09
2018-12-06T11:19:53.605Z,23.26
2018-12-06T11:20:53.586Z,23.31
2018-12-06T11:21:53.589Z,23.38
2018-12-06T11:22:53.575Z,23.54
2018-12-06T11:23:53.591Z,23.56
2018-12-06T11:24:53.556Z,23.68
2018-12-06T11:25:53.537Z,23.69
2018-12-06T11:26:53.519Z,23.90
2018-12-06T11:27:53.554Z,23.99
2018-12-06T11:28:53.527Z,23.86
2018-12-06T11:29:53.560Z,23.89
2018-12-06T11:30:53.540Z,23.82
2018-12-06T11:31:53.516Z,23.81
2018-12-06T11:32:53.495Z,23.71
2018-12-06T11:33:53.481Z,23.71
2018-12-06T11:34:53.510Z,23.97
2018-12-06T11:35:53.541Z,24.06
2018-12-06T11:36:53.487Z,24.11
2018-12-06T11:37:53.491Z,24.14
2018-12-06T11:38:53.462Z,24.24
2018-12-06T11:39:53.467Z,24.24
2018-12-06T11:40:53.457Z,24.23
2018-12-06T11:41:53.466Z,24.27
2018-12-06T11:42:53.448Z,24.36
2018-12-06T11:43:53.481Z,24.59
2018-12-06T11:44:53.434Z,24.64
2018-12-06T11:45:53.451Z,24.60
2018-12-06T11:46:53.422Z,24.46
2018-12-06T11:47:53.864Z,24.66
2018-12-06T11:48:53.419Z,24.51
2018-12-06T11:49:53.412Z,24.60
2018-12-06T11:50:53.395Z,24.66
2018-12-06T11:51:53.383Z,24.63
2018-12-06T11:52:53.437Z,24.60
2018-12-06T11:53:53.868Z,24.84
2018-12-06T11:54:53.372Z,24.92
2018-12-06T11:55:53.403Z,24.90
2018-12-06T11:56:53.366Z,25.02
2018-12-06T11:57:53.353Z,25.19
2018-12-06T11:58:53.369Z,25.34
2018-12-06T11:59:53.355Z,25.49
2018-12-06T12:00:53.389Z,25.51
2018-12-06T12:01:53.333Z,25.79
2018-12-06T12:02:53.354Z,25.96
2018-12-06T12:03:55.075Z,26.08
2018-12-06T12:04:53.314Z,26.28
2018-12-06T12:05:58.573Z,26.61
2018-12-06T12:06:53.302Z,26.27
2018-12-06T12:07:53.310Z,26.42
2018-12-06T12:08:53.324Z,26.56
2018-12-06T12:09:53.698Z,26.68
2018-12-06T12:10:53.299Z,26.72
2018-12-06T12:11:53.295Z,26.69
2018-12-06T12:12:53.294Z,27.01
2018-12-06T12:13:53.307Z,27.06
2018-12-06T12:14:53.298Z,27.16
2018-12-06T12:15:53.273Z,27.30
2018-12-06T12:16:53.285Z,27.28
2018-12-06T12:17:53.286Z,27.48
2018-12-06T12:18:53.685Z,27.59
2018-12-06T12:19:53.273Z,27.38
2018-12-06T12:20:53.260Z,27.28
2018-12-06T12:21:53.264Z,27.24
2018-12-06T12:22:53.230Z,27.35
2018-12-06T12:23:53.483Z,26.93
2018-12-06T12:24:53.240Z,26.84
2018-12-06T12:25:53.247Z,26.53
2018-12-06T12:26:53.235Z,26.35
2018-12-06T12:27:53.238Z,26.53
2018-12-06T12:28:53.227Z,26.75
2018-12-06T12:29:53.233Z,26.66
2018-12-06T12:30:53.243Z,26.97
2018-12-06T12:31:53.216Z,27.23
2018-12-06T12:32:53.211Z,27.40
2018-12-06T12:33:53.217Z,27.16
2018-12-06T12:34:53.548Z,27.11
2018-12-06T12:35:53.207Z,27.30
2018-12-06T12:36:53.198Z,27.50
2018-12-06T12:37:53.177Z,27.46
2018-12-06T12:38:53.203Z,27.42
2018-12-06T12:39:53.197Z,27.61
2018-12-06T12:40:53.179Z,27.88
2018-12-06T12:41:53.203Z,27.88
2018-12-06T12:42:53.188Z,27.72
2018-12-06T12:43:53.173Z,28.02
2018-12-06T12:44:53.191Z,28.18
2018-12-06T12:45:53.192Z,28.32
2018-12-06T12:46:53.185Z,28.40
2018-12-06T12:47:53.162Z,28.51
2018-12-06T12:48:53.185Z,28.27
2018-12-06T12:49:53.176Z,27.78
2018-12-06T12:50:55.400Z,27.31
2018-12-06T12:51:53.132Z,27.34
2018-12-06T12:52:53.133Z,27.58